createdAt,value
2018-07-05T00:09:15.088Z,0.0
2018-07-05T00:19:29.316Z,0.0
2018-07-05T00:29:44.126Z,0.0
2018-07-05T00:39:57.756Z,0.0
2018-07-05T00:50:12.381Z,0.0
2018-07-05T01:00:26.348Z,0.0
2018-07-05T01:10:40.243Z,0.0
2018-07-05T01:31:30.039Z,0.0
2018-07-05T01:52:07.765Z,0.0
2018-07-05T02:02:53.153Z,0.0
2018-07-05T02:13:38.599Z,0.0
2018-07-05T02:23:53.011Z,0.0
2018-07-05T02:34:07.486Z,4.0
2018-07-05T02:44:52.619Z,4.0
2018-07-05T02:55:07.444Z,20.0
2018-07-05T03:05:21.900Z,56.0
2018-07-05T03:15:35.694Z,140.0
2018-07-05T03:25:49.896Z,280.0
2018-07-05T03:36:04.201Z,476.0
2018-07-05T03:46:18.538Z,704.0
2018-07-05T03:57:41.852Z,964.0
2018-07-05T04:07:55.873Z,1316.0
2018-07-05T04:18:10.112Z,1696.0
2018-07-05T04:28:26.596Z,2024.0
2018-07-05T04:38:40.781Z,2364.0
2018-07-05T04:48:54.934Z,2752.0
2018-07-05T04:59:09.020Z,3124.0
2018-07-05T05:09:23.149Z,3368.0
2018-07-05T05:19:37.200Z,3412.0
2018-07-05T05:29:51.688Z,3460.0
2018-07-05T05:40:06.732Z,4128.0
2018-07-05T05:50:21.199Z,4352.0
2018-07-05T06:00:35.114Z,4940.0
2018-07-05T06:10:49.505Z,5172.0
2018-07-05T06:21:39.859Z,5592.0
2018-07-05T06:31:53.478Z,5836.0
2018-07-05T06:42:07.922Z,6224.0
2018-07-05T06:52:53.082Z,7544.0
2018-07-05T07:03:37.804Z,7868.0
2018-07-05T07:13:51.504Z,8164.0
2018-07-05T07:24:05.618Z,8804.0
2018-07-05T07:34:19.770Z,9740.0
2018-07-05T07:44:33.903Z,10660.0
2018-07-05T07:54:48.557Z,11696.0
2018-07-05T08:05:17.656Z,14304.0
2018-07-05T08:15:32.190Z,17312.0
2018-07-05T08:25:45.902Z,21184.0
2018-07-05T08:36:00.669Z,25120.0
2018-07-05T08:46:15.624Z,24896.0
2018-07-05T08:56:29.633Z,23936.0
2018-07-05T09:06:43.214Z,25824.0
2018-07-05T09:16:57.489Z,30496.0
2018-07-05T09:27:11.761Z,24736.0
2018-07-05T09:38:08.972Z,32128.0
2018-07-05T09:48:22.795Z,37888.0
2018-07-05T09:59:08.294Z,37984.0
2018-07-05T10:09:23.115Z,39456.0
2018-07-05T10:19:36.981Z,39840.0
2018-07-05T10:29:49.243Z,15840.0
2018-07-05T10:40:04.692Z,16352.0
2018-07-05T10:50:19.718Z,15552.0
2018-07-05T11:00:34.289Z,15424.0
2018-07-05T11:11:19.574Z,13564.0
2018-07-05T11:22:05.231Z,13492.0
2018-07-05T11:32:18.478Z,13340.0
2018-07-05T11:43:10.132Z,39360.0
2018-07-05T11:53:24.633Z,48096.0
2018-07-05T12:04:10.054Z,46400.0
2018-07-05T12:14:21.273Z,49728.0
2018-07-05T12:24:34.874Z,41760.0
2018-07-05T12:34:48.933Z,40384.0
2018-07-05T12:45:03.268Z,41504.0
2018-07-05T12:55:52.645Z,39296.0
2018-07-05T13:26:32.640Z,25952.0
2018-07-05T13:40:27.765Z,18496.0
2018-07-05T13:51:37.282Z,16352.0
2018-07-05T14:02:24.372Z,15648.0
2018-07-05T14:13:10.050Z,16512.0
2018-07-05T14:23:23.523Z,17440.0
2018-07-05T14:33:39.105Z,17120.0
2018-07-05T14:43:54.382Z,18432.0
2018-07-05T14:55:27.804Z,13500.0
2018-07-05T15:05:42.196Z,10436.0
2018-07-05T15:15:53.484Z,8780.0
2018-07-05T15:26:07.582Z,7548.0
2018-07-05T15:36:21.706Z,7048.0
2018-07-05T15:46:36.015Z,6348.0
2018-07-05T15:56:50.276Z,5940.0
2018-07-05T16:07:04.723Z,5768.0
2018-07-05T16:17:50.283Z,5504.0
2018-07-05T16:28:05.895Z,5260.0
2018-07-05T16:40:32.840Z,5076.0
2018-07-05T16:50:47.804Z,4904.0
2018-07-05T17:01:02.010Z,4684.0
2018-07-05T17:11:15.668Z,4572.0
2018-07-05T17:22:04.252Z,5364.0
2018-07-05T17:32:17.928Z,4056.0
2018-07-05T17:42:30.264Z,3788.0
2018-07-05T17:52:44.523Z,3532.0
2018-07-05T18:04:13.400Z,3180.0
2018-07-05T18:22:44.541Z,2776.0
2018-07-05T18:59:50.484Z,1540.0
2018-07-05T19:48:52.150Z,264.0
2018-07-05T19:59:05.477Z,120.0
2018-07-05T20:09:22.063Z,44.0
2018-07-05T20:20:07.060Z,12.0
2018-07-05T20:30:19.723Z,4.0
2018-07-05T20:41:05.296Z,0.0
2018-07-05T20:51:20.730Z,0.0
2018-07-05T21:01:34.901Z,0.0
2018-07-05T21:11:49.357Z,0.0
2018-07-05T21:22:03.475Z,0.0
2018-07-05T21:32:17.161Z,0.0
2018-07-05T21:42:31.653Z,0.0
2018-07-05T21:52:45.701Z,0.0
2018-07-05T22:03:00.192Z,0.0
2018-07-05T22:13:14.233Z,0.0
2018-07-05T22:23:28.722Z,0.0
2018-07-05T22:33:42.799Z,0.0
2018-07-05T22:43:56.854Z,0.0
2018-07-05T22:54:11.158Z,0.0
2018-07-05T23:04:25.405Z,0.0
2018-07-05T23:14:39.583Z,0.0
2018-07-05T23:24:53.472Z,0.0
2018-07-05T23:35:04.998Z,0.0
2018-07-05T23:45:17.369Z,0.0
2018-07-05T23:55:32.951Z,0.0
